createdAt,value
2023-01-19T00:01:09.308Z,0.9
2023-01-19T00:03:11.270Z,0.9
2023-01-19T00:11:22.262Z,0.7
2023-01-19T00:13:24.274Z,0.7
2023-01-19T00:15:26.236Z,0.7
2023-01-19T00:16:28.846Z,0.8
2023-01-19T00:18:30.733Z,0.8
2023-01-19T00:20:32.853Z,0.6
2023-01-19T00:22:34.670Z,0.4
2023-01-19T00:24:39.797Z,0.4
2023-01-19T00:26:41.753Z,0.4
2023-01-19T00:28:43.706Z,0.4
2023-01-19T00:30:45.684Z,0.4
2023-01-19T00:32:47.660Z,0.5
2023-01-19T00:34:49.711Z,0.5
2023-01-19T00:36:51.549Z,0.5
2023-01-19T00:38:58.199Z,0.5
2023-01-19T00:41:00.134Z,0.5
2023-01-19T00:45:04.026Z,0.6
2023-01-19T00:47:05.966Z,0.6
2023-01-19T00:49:07.921Z,0.6
2023-01-19T00:51:09.882Z,0.6
2023-01-19T00:53:14.974Z,0.6
2023-01-19T00:55:16.984Z,0.6
2023-01-19T00:57:18.897Z,0.5
2023-01-19T00:59:20.864Z,0.5
2023-01-19T01:01:22.972Z,0.4
2023-01-19T01:03:24.883Z,0.3
2023-01-19T01:05:26.718Z,0.3
2023-01-19T01:07:31.843Z,0.3
2023-01-19T01:09:33.779Z,0.2
2023-01-19T01:11:35.729Z,0.2
2023-01-19T01:14:40.256Z,0.3
2023-01-19T01:16:42.292Z,0.4
2023-01-19T01:18:44.168Z,0.4
2023-01-19T01:20:49.248Z,0.5
2023-01-19T01:22:51.184Z,0.4
2023-01-19T01:24:53.174Z,0.5
2023-01-19T01:30:58.986Z,0.7
2023-01-19T01:33:01.306Z,0.7
2023-01-19T01:37:08.007Z,0.8
2023-01-19T01:39:09.943Z,0.9
2023-01-19T01:41:11.901Z,0.9
2023-01-19T01:43:13.851Z,1.1
2023-01-19T01:45:15.825Z,1.1
2023-01-19T01:47:17.749Z,1.1
2023-01-19T01:49:22.867Z,1.1
2023-01-19T01:51:24.843Z,1.1
2023-01-19T01:53:26.774Z,1.1
2023-01-19T01:55:28.751Z,1.1
2023-01-19T01:57:30.692Z,1.1
2023-01-19T01:59:32.635Z,1.1
2023-01-19T02:01:34.819Z,1.1
2023-01-19T02:03:39.770Z,1.1
2023-01-19T02:05:41.685Z,1.1
2023-01-19T02:07:43.673Z,1.1
2023-01-19T02:10:00.428Z,1
2023-01-19T02:12:02.368Z,1
2023-01-19T02:14:04.316Z,0.9
2023-01-19T02:18:11.395Z,0.9
2023-01-19T02:24:17.293Z,0.9
2023-01-19T02:26:19.265Z,0.9
2023-01-19T02:28:21.217Z,0.8
2023-01-19T02:30:26.343Z,0.8
2023-01-19T02:32:28.799Z,0.8
2023-01-19T02:34:30.261Z,0.6
2023-01-19T02:40:36.153Z,0.3
2023-01-19T02:52:51.057Z,0.2
2023-01-19T02:54:52.994Z,0.2
2023-01-19T02:56:54.973Z,0.2
2023-01-19T02:59:00.105Z,0.2
2023-01-19T03:01:02.160Z,0.2
2023-01-19T03:03:04.452Z,0.2
2023-01-19T03:04:06.513Z,0.3
2023-01-19T03:06:08.480Z,0.2
2023-01-19T03:08:10.446Z,0.3
2023-01-19T03:10:12.400Z,0.3
2023-01-19T03:12:17.477Z,0.3
2023-01-19T03:14:19.442Z,0.4
2023-01-19T03:16:22.610Z,0.4
2023-01-19T03:18:23.324Z,0.4
2023-01-19T03:20:25.330Z,0.5
2023-01-19T03:22:27.243Z,0.5
2023-01-19T03:24:29.179Z,0.5
2023-01-19T03:26:34.261Z,0.5
2023-01-19T03:28:36.198Z,0.5
2023-01-19T03:30:38.205Z,0.6
2023-01-19T03:32:40.095Z,0.6
2023-01-19T03:38:45.926Z,0.6
2023-01-19T03:42:53.031Z,0.7
2023-01-19T03:44:54.961Z,0.8
2023-01-19T03:46:56.936Z,0.8
2023-01-19T03:48:58.888Z,0.8
2023-01-19T03:51:00.859Z,0.8
2023-01-19T03:53:03.249Z,0.9
2023-01-19T03:57:09.854Z,1
2023-01-19T04:00:14.363Z,1
2023-01-19T04:02:16.502Z,1
2023-01-19T04:06:20.244Z,1.1
2023-01-19T04:08:25.335Z,1.1
2023-01-19T04:10:27.281Z,1.1
2023-01-19T04:12:29.259Z,1.1
2023-01-19T04:14:31.189Z,1.1
2023-01-19T04:16:33.119Z,1.1
2023-01-19T04:18:35.099Z,1.2
2023-01-19T04:20:37.074Z,1.2
2023-01-19T04:22:42.157Z,1.3
2023-01-19T04:24:44.125Z,1.2
2023-01-19T04:26:46.084Z,1.2
2023-01-19T04:28:48.055Z,1.3
2023-01-19T04:30:50.047Z,1.3
2023-01-19T04:32:51.973Z,1.3
2023-01-19T04:34:53.927Z,1.3
2023-01-19T04:36:59.056Z,1.3
2023-01-19T04:39:01.004Z,1.4
2023-01-19T04:41:02.945Z,1.5
2023-01-19T04:43:04.928Z,1.5
2023-01-19T04:45:06.867Z,1.6
2023-01-19T04:47:08.836Z,1.7
2023-01-19T04:49:10.808Z,1.7
2023-01-19T04:51:15.933Z,1.8
2023-01-19T04:53:17.888Z,1.8
2023-01-19T04:55:19.861Z,1.8
2023-01-19T04:56:22.423Z,1.8
2023-01-19T04:58:24.368Z,1.9
2023-01-19T05:00:26.352Z,1.9
2023-01-19T05:02:28.396Z,1.8
2023-01-19T05:04:33.470Z,1.8
2023-01-19T05:06:35.433Z,1.8
2023-01-19T05:10:39.384Z,1.8
2023-01-19T05:12:41.368Z,1.8
2023-01-19T05:14:43.401Z,1.8
2023-01-19T05:16:45.338Z,1.8
2023-01-19T05:18:50.478Z,1.7
2023-01-19T05:20:52.446Z,1.7
2023-01-19T05:22:54.449Z,1.7
2023-01-19T05:24:56.411Z,1.7
2023-01-19T05:26:58.411Z,1.7
2023-01-19T05:29:00.363Z,1.7
2023-01-19T05:31:02.538Z,1.7
2023-01-19T05:33:07.493Z,1.7
2023-01-19T05:35:09.476Z,1.7
2023-01-19T05:37:11.444Z,1.7
2023-01-19T05:39:13.431Z,1.7
2023-01-19T05:41:15.418Z,1.7
2023-01-19T05:45:19.353Z,1.7
2023-01-19T05:47:24.475Z,1.7
2023-01-19T05:49:26.484Z,1.7
2023-01-19T05:51:28.434Z,1.7
2023-01-19T05:53:51.459Z,1.7
2023-01-19T05:55:53.450Z,1.7
2023-01-19T05:57:55.441Z,1.8
2023-01-19T06:00:00.548Z,1.8
2023-01-19T06:02:02.583Z,1.7
2023-01-19T06:04:04.551Z,1.7
2023-01-19T06:06:06.506Z,1.6
2023-01-19T06:08:08.491Z,1.6
2023-01-19T06:10:10.461Z,1.7
2023-01-19T06:12:12.436Z,1.6
2023-01-19T06:14:17.566Z,1.6
2023-01-19T06:16:19.622Z,1.6
2023-01-19T06:20:23.484Z,1.7
2023-01-19T06:22:25.467Z,1.7
2023-01-19T06:24:27.437Z,1.8
2023-01-19T06:26:29.418Z,1.8
2023-01-19T06:28:34.637Z,1.9
2023-01-19T06:30:38.075Z,1.9
2023-01-19T06:32:39.981Z,1.8
2023-01-19T06:34:41.963Z,1.9
2023-01-19T06:36:43.919Z,1.9
2023-01-19T06:38:45.949Z,1.9
2023-01-19T06:40:47.888Z,1.9
2023-01-19T06:44:54.978Z,1.9
2023-01-19T06:47:59.513Z,1.8
2023-01-19T06:50:01.522Z,1.8
2023-01-19T06:52:03.508Z,1.7
2023-01-19T06:54:05.451Z,1.7
2023-01-19T07:00:14.544Z,1.7
2023-01-19T07:02:26.294Z,1.7
2023-01-19T07:04:18.534Z,1.7
2023-01-19T07:10:27.614Z,1.6
2023-01-19T07:12:29.583Z,1.6
2023-01-19T07:14:31.545Z,1.7
2023-01-19T07:18:35.541Z,1.8
2023-01-19T07:20:37.473Z,1.8
2023-01-19T07:24:44.596Z,1.8
2023-01-19T07:26:46.584Z,1.7
2023-01-19T07:28:48.548Z,1.8
2023-01-19T07:30:50.617Z,1.9
2023-01-19T07:34:54.476Z,1.9
2023-01-19T07:36:56.484Z,1.8
2023-01-19T07:39:01.585Z,1.9
2023-01-19T07:41:03.572Z,1.9
2023-01-19T07:43:05.537Z,1.9
2023-01-19T07:44:08.094Z,1.9
2023-01-19T07:46:10.182Z,1.9
2023-01-19T07:48:12.068Z,1.9
2023-01-19T07:50:14.040Z,1.9
2023-01-19T07:52:19.185Z,1.9
2023-01-19T08:00:27.047Z,2.1
2023-01-19T08:02:29.012Z,2.1
2023-01-19T08:04:31.093Z,2.1
2023-01-19T08:06:36.114Z,2
2023-01-19T08:08:38.109Z,2
2023-01-19T08:10:40.089Z,2
2023-01-19T08:12:42.077Z,2
2023-01-19T08:14:44.022Z,2.1
2023-01-19T08:16:45.980Z,2
2023-01-19T08:22:55.051Z,2.1
2023-01-19T08:24:57.004Z,2.2
2023-01-19T08:26:58.991Z,2.3
2023-01-19T08:29:00.973Z,2.2
2023-01-19T08:31:18.308Z,2.2
2023-01-19T08:33:04.973Z,2.3
2023-01-19T08:35:10.047Z,2.2
2023-01-19T08:37:12.052Z,2.2
2023-01-19T08:39:14.066Z,2.3
2023-01-19T08:40:16.616Z,2.4
2023-01-19T08:42:18.629Z,2.3
2023-01-19T08:44:20.576Z,2.3
2023-01-19T08:46:22.655Z,2.4
2023-01-19T08:48:27.720Z,2.4
2023-01-19T08:50:29.710Z,2.4
2023-01-19T08:52:31.665Z,2.4
2023-01-19T08:54:33.657Z,2.4
2023-01-19T08:56:35.637Z,2.4
2023-01-19T08:58:37.595Z,2.4
2023-01-19T09:00:39.605Z,2.3
2023-01-19T09:02:44.832Z,2.3
2023-01-19T09:04:46.710Z,2.3
2023-01-19T09:06:48.715Z,2.3
2023-01-19T09:08:50.673Z,2.3
2023-01-19T09:12:54.628Z,2.2
2023-01-19T09:14:56.652Z,2.2
2023-01-19T09:21:05.711Z,2
2023-01-19T09:23:07.675Z,2
2023-01-19T09:25:09.692Z,2
2023-01-19T09:27:11.634Z,2
2023-01-19T09:29:13.632Z,2.1
2023-01-19T09:31:18.811Z,2.3
2023-01-19T09:33:20.727Z,2.3
2023-01-19T09:35:22.729Z,2.4
2023-01-19T09:37:45.738Z,2.6
2023-01-19T09:39:47.769Z,2.6
2023-01-19T09:43:54.831Z,2.7
2023-01-19T09:45:56.787Z,2.8
2023-01-19T09:47:59.021Z,2.9
2023-01-19T09:50:00.783Z,2.9
2023-01-19T09:52:02.744Z,2.9
2023-01-19T09:54:04.782Z,3
2023-01-19T09:56:06.718Z,3
2023-01-19T09:58:11.857Z,3.1
2023-01-19T10:00:13.846Z,3.1
2023-01-19T10:02:15.798Z,3.2
2023-01-19T10:04:17.801Z,3.2
2023-01-19T10:06:19.799Z,3.3
2023-01-19T10:08:21.762Z,3.4
2023-01-19T10:10:23.755Z,3.4
2023-01-19T10:12:28.912Z,3.5
2023-01-19T10:14:30.941Z,3.6
2023-01-19T10:16:32.940Z,3.6
2023-01-19T10:18:34.937Z,3.6
2023-01-19T10:20:36.906Z,3.6
2023-01-19T10:22:38.882Z,3.8
2023-01-19T10:24:40.907Z,3.8
2023-01-19T10:28:48.066Z,4.1
2023-01-19T10:30:50.093Z,4
2023-01-19T10:31:52.716Z,3.8
2023-01-19T10:33:54.635Z,3.8
2023-01-19T10:35:56.658Z,3.9
2023-01-19T10:37:58.678Z,4.1
2023-01-19T10:40:03.883Z,4.1
2023-01-19T10:42:05.877Z,4.2
2023-01-19T10:44:07.858Z,4.3
2023-01-19T10:46:09.961Z,4.3
2023-01-19T10:48:11.892Z,4.3
2023-01-19T10:50:13.905Z,4.3
2023-01-19T10:52:18.248Z,4.4
2023-01-19T10:54:21.151Z,4.6
2023-01-19T10:56:23.108Z,4.7
2023-01-19T10:58:25.119Z,4.7
2023-01-19T11:00:27.129Z,4.8
2023-01-19T11:02:29.400Z,5.2
2023-01-19T11:04:31.170Z,5.6
2023-01-19T11:06:33.178Z,5.9
2023-01-19T11:08:38.163Z,6.4
2023-01-19T11:10:40.071Z,6.4
2023-01-19T11:12:41.974Z,6.6
2023-01-19T11:14:43.898Z,6.8
2023-01-19T11:16:45.866Z,7.2
2023-01-19T11:18:47.749Z,7.5
2023-01-19T11:20:49.696Z,7.8
2023-01-19T11:22:54.657Z,8
2023-01-19T11:24:56.595Z,8
2023-01-19T11:26:58.519Z,8.1
2023-01-19T11:28:01.020Z,8.5
2023-01-19T11:30:02.943Z,8.4
2023-01-19T11:32:04.895Z,8.8
2023-01-19T11:36:11.834Z,10.7
2023-01-19T11:38:13.782Z,11.1
2023-01-19T11:40:15.717Z,10.3
2023-01-19T11:42:17.645Z,10.2
2023-01-19T11:44:19.611Z,9.8
2023-01-19T11:46:21.532Z,9.6
2023-01-19T11:48:23.479Z,10.3
2023-01-19T11:50:28.476Z,10.1
2023-01-19T11:52:30.428Z,10.2
2023-01-19T11:54:32.370Z,10.9
2023-01-19T12:00:38.232Z,10.1
2023-01-19T12:02:40.174Z,10
2023-01-19T12:08:49.125Z,9.9
2023-01-19T12:10:51.040Z,9.7
2023-01-19T12:12:53.017Z,10
2023-01-19T12:14:54.989Z,9.7
2023-01-19T12:16:56.921Z,9.8
2023-01-19T12:19:01.955Z,10
2023-01-19T12:21:04.349Z,10
2023-01-19T12:23:07.359Z,10
2023-01-19T12:24:09.871Z,9.9
2023-01-19T12:26:11.797Z,9.9
2023-01-19T12:28:13.775Z,9.9
2023-01-19T12:30:15.724Z,9.7
2023-01-19T12:32:20.748Z,10.2
2023-01-19T12:34:22.704Z,10
2023-01-19T12:36:24.653Z,9.9
2023-01-19T12:38:26.636Z,9.7
2023-01-19T12:40:28.603Z,10.3
2023-01-19T12:42:30.588Z,9.7
2023-01-19T12:44:32.530Z,9.6
2023-01-19T12:46:37.555Z,9.9
2023-01-19T12:48:39.493Z,10.5
2023-01-19T12:50:41.480Z,11.1
2023-01-19T12:52:43.437Z,10.6
2023-01-19T12:54:45.405Z,9.6
2023-01-19T12:56:47.372Z,9.8
2023-01-19T12:58:49.349Z,9.2
2023-01-19T13:00:54.380Z,7.5
2023-01-19T13:04:58.320Z,6.5
2023-01-19T13:13:06.151Z,5.7
2023-01-19T13:15:11.195Z,6.5
2023-01-19T13:17:13.155Z,6.6
2023-01-19T13:19:15.138Z,5.9
2023-01-19T13:21:31.772Z,5.4
2023-01-19T13:25:35.698Z,5.3
2023-01-19T13:27:40.781Z,5.3
2023-01-19T13:29:42.647Z,5.4
2023-01-19T13:31:44.749Z,5.6
2023-01-19T13:33:46.598Z,5.7
2023-01-19T13:35:48.562Z,5.8
2023-01-19T13:37:50.488Z,5.9
2023-01-19T13:39:52.484Z,5.7
2023-01-19T13:41:57.482Z,5.9
2023-01-19T13:43:59.419Z,5.8
2023-01-19T13:46:01.454Z,5.7
2023-01-19T13:48:03.343Z,5.6
2023-01-19T13:50:05.296Z,5.7
2023-01-19T13:54:09.216Z,5.6
2023-01-19T14:00:18.131Z,5.9
2023-01-19T14:02:20.306Z,7.1
2023-01-19T14:04:22.049Z,6.2
2023-01-19T14:10:31.032Z,6.2
2023-01-19T14:12:32.964Z,6.3
2023-01-19T14:14:34.925Z,7.3
2023-01-19T14:15:37.400Z,8
2023-01-19T14:17:39.354Z,8.1
2023-01-19T14:19:41.330Z,8
2023-01-19T14:23:48.251Z,6.5
2023-01-19T14:25:50.204Z,6.2
2023-01-19T14:27:52.161Z,6.3
2023-01-19T14:29:54.095Z,7
2023-01-19T14:31:56.040Z,7.6
2023-01-19T14:33:57.996Z,7.7
2023-01-19T14:35:59.957Z,7.4
2023-01-19T14:38:04.955Z,6.2
2023-01-19T14:40:06.933Z,6
2023-01-19T14:42:08.856Z,5.7
2023-01-19T14:44:10.830Z,5.6
2023-01-19T14:46:12.840Z,5.8
2023-01-19T14:48:17.698Z,6.5
2023-01-19T14:50:16.702Z,6.5
2023-01-19T14:52:21.701Z,7.2
2023-01-19T14:54:23.656Z,7.3
2023-01-19T15:00:29.610Z,8.1
2023-01-19T15:02:31.524Z,8
2023-01-19T15:06:38.436Z,7.2
2023-01-19T15:08:40.393Z,6.9
2023-01-19T15:10:42.327Z,6.4
2023-01-19T15:11:44.840Z,6
2023-01-19T15:13:46.799Z,5.9
2023-01-19T15:15:48.787Z,5.5
2023-01-19T15:17:50.693Z,5.2
2023-01-19T15:19:55.715Z,4.8
2023-01-19T15:21:57.681Z,4.7
2023-01-19T15:23:59.597Z,4.6
2023-01-19T15:26:01.633Z,4.5
2023-01-19T15:28:03.504Z,4.4
2023-01-19T15:30:05.450Z,4.3
2023-01-19T15:32:07.402Z,4.3
2023-01-19T15:34:12.386Z,4.1
2023-01-19T15:36:16.396Z,4.1
2023-01-19T15:38:16.432Z,4
2023-01-19T15:40:18.457Z,4
2023-01-19T15:42:20.384Z,3.9
2023-01-19T15:44:22.421Z,3.8
2023-01-19T15:46:24.476Z,3.7
2023-01-19T15:48:29.664Z,3.6
2023-01-19T15:50:31.694Z,3.6
2023-01-19T15:52:33.736Z,3.5
2023-01-19T15:54:35.783Z,3.5
2023-01-19T15:56:37.811Z,3.4
2023-01-19T15:58:39.921Z,3.3
2023-01-19T16:00:41.940Z,3.3
2023-01-19T16:02:47.847Z,3.2
2023-01-19T16:04:49.806Z,3.1
2023-01-19T16:06:51.821Z,3.1
2023-01-19T16:07:54.394Z,3.1
2023-01-19T16:09:56.442Z,3
2023-01-19T16:11:58.453Z,2.9
2023-01-19T16:14:00.500Z,2.9
2023-01-19T16:16:05.677Z,2.6
2023-01-19T16:18:07.661Z,2.6
2023-01-19T16:20:10.544Z,2.5
2023-01-19T16:22:11.673Z,2.5
2023-01-19T16:24:13.703Z,2.5
2023-01-19T16:26:17.557Z,2.4
2023-01-19T16:28:17.736Z,2.5
2023-01-19T16:30:22.916Z,2.3
2023-01-19T16:32:24.856Z,2.3
2023-01-19T16:34:26.876Z,2.2
2023-01-19T16:36:28.914Z,2.1
2023-01-19T16:38:30.878Z,2.1
2023-01-19T16:40:32.895Z,2.1
2023-01-19T16:42:34.899Z,2.1
2023-01-19T16:44:40.055Z,2.1
2023-01-19T16:46:42.057Z,2.2
2023-01-19T16:48:44.063Z,2
2023-01-19T16:50:46.061Z,2
2023-01-19T16:52:48.033Z,1.9
2023-01-19T16:54:50.053Z,1.9
2023-01-19T16:56:52.035Z,2
2023-01-19T17:03:01.200Z,1.8
2023-01-19T17:05:23.903Z,1.6
2023-01-19T17:07:25.872Z,1.6
2023-01-19T17:09:27.865Z,1.7
2023-01-19T17:11:33.017Z,1.6
2023-01-19T17:13:34.990Z,1.6
2023-01-19T17:15:36.998Z,1.4
2023-01-19T17:17:38.986Z,1.4
2023-01-19T17:19:40.932Z,1.3
2023-01-19T17:21:42.925Z,1.1
2023-01-19T17:25:50.048Z,0.9
2023-01-19T17:27:52.411Z,0.9
2023-01-19T17:29:54.381Z,1
2023-01-19T17:31:56.374Z,1
2023-01-19T17:33:58.313Z,1
2023-01-19T17:38:02.273Z,0.8
2023-01-19T17:52:19.137Z,0.6
2023-01-19T17:54:24.264Z,0.5
2023-01-19T17:58:28.169Z,0.5
2023-01-19T17:59:30.724Z,0.6
2023-01-19T18:01:32.745Z,0.6
2023-01-19T18:03:34.648Z,0.6
2023-01-19T18:05:36.582Z,0.8
2023-01-19T18:07:41.689Z,0.7
2023-01-19T18:09:43.669Z,0.7
2023-01-19T18:11:45.593Z,0.7
2023-01-19T18:13:49.083Z,0.7
2023-01-19T18:15:51.082Z,0.8
2023-01-19T18:17:52.915Z,0.8
2023-01-19T18:19:54.846Z,0.7
2023-01-19T18:21:59.951Z,0.8
2023-01-19T18:24:01.932Z,0.8
2023-01-19T18:26:03.859Z,0.8
2023-01-19T18:28:05.789Z,0.8
2023-01-19T18:30:07.726Z,0.7
2023-01-19T18:32:09.714Z,0.6
2023-01-19T18:34:11.630Z,0.6
2023-01-19T18:38:18.673Z,0.6
2023-01-19T18:40:20.629Z,0.6
2023-01-19T18:42:22.577Z,0.5
2023-01-19T18:44:24.515Z,0.4
2023-01-19T18:48:28.413Z,0.5
2023-01-19T18:50:33.498Z,0.6
2023-01-19T18:52:35.471Z,0.6
2023-01-19T18:55:39.947Z,0.5
2023-01-19T18:57:41.906Z,0.6
2023-01-19T18:59:43.888Z,0.6
2023-01-19T19:01:45.824Z,0.6
2023-01-19T19:03:50.912Z,0.5
2023-01-19T19:11:58.697Z,0.6
2023-01-19T19:14:00.638Z,0.7
2023-01-19T19:18:07.718Z,0.6
2023-01-19T19:20:09.652Z,0.5
2023-01-19T19:22:11.595Z,0.5
2023-01-19T19:24:13.569Z,0.5
2023-01-19T19:30:19.447Z,0.4
2023-01-19T19:36:28.377Z,0.4
2023-01-19T19:38:30.477Z,0.4
2023-01-19T19:40:32.277Z,0.4
2023-01-19T19:42:34.192Z,0.3
2023-01-19T19:44:36.133Z,0.3
2023-01-19T19:46:41.262Z,0.3
2023-01-19T19:48:43.184Z,0.3
2023-01-19T19:50:45.140Z,0.3
2023-01-19T19:51:47.686Z,0.3
2023-01-19T19:53:51.537Z,0.3
2023-01-19T19:55:51.558Z,0.3
2023-01-19T19:57:53.501Z,0.3
2023-01-19T19:59:58.624Z,0.4
2023-01-19T20:02:00.665Z,0.4
2023-01-19T20:04:02.490Z,0.3
2023-01-19T20:06:04.442Z,0.3
2023-01-19T20:08:06.396Z,0.4
2023-01-19T20:10:08.344Z,0.4
2023-01-19T20:12:10.307Z,0.4
2023-01-19T20:14:15.374Z,0.4
2023-01-19T20:16:17.434Z,0.4
2023-01-19T20:18:19.280Z,0.4
2023-01-19T20:20:21.225Z,0.5
2023-01-19T20:22:23.165Z,0.5
2023-01-19T20:24:25.095Z,0.5
2023-01-19T20:26:27.027Z,0.5
2023-01-19T20:28:32.160Z,0.5
2023-01-19T20:30:34.094Z,0.5
2023-01-19T20:32:36.036Z,0.5
2023-01-19T20:34:37.956Z,0.4
2023-01-19T20:36:39.930Z,0.4
2023-01-19T20:40:43.797Z,0.5
2023-01-19T20:42:48.884Z,0.5
2023-01-19T20:44:50.841Z,0.5
2023-01-19T20:46:52.798Z,0.5
2023-01-19T20:49:15.811Z,0.6
2023-01-19T20:51:17.754Z,0.5
2023-01-19T20:53:19.713Z,0.5
2023-01-19T20:55:24.784Z,0.5
2023-01-19T20:57:26.737Z,0.5
2023-01-19T20:59:28.704Z,0.6
2023-01-19T21:01:30.798Z,0.6
2023-01-19T21:03:32.614Z,0.6
2023-01-19T21:05:34.542Z,0.6
2023-01-19T21:07:36.504Z,0.6
2023-01-19T21:09:41.608Z,0.6
2023-01-19T21:11:43.560Z,0.6
2023-01-19T21:13:45.521Z,0.6
2023-01-19T21:15:47.463Z,0.6
2023-01-19T21:17:49.403Z,0.6
2023-01-19T21:19:51.370Z,0.6
2023-01-19T21:21:53.323Z,0.5
2023-01-19T21:26:00.379Z,0.5
2023-01-19T21:30:04.280Z,0.5
2023-01-19T21:38:15.236Z,0.4
2023-01-19T21:40:17.204Z,0.4
2023-01-19T21:42:19.136Z,0.4
2023-01-19T21:43:21.687Z,0.3
2023-01-19T21:45:23.737Z,0.3
2023-01-19T21:47:25.617Z,0.3
2023-01-19T21:49:27.563Z,0.3
2023-01-19T21:51:32.646Z,0.2
2023-01-19T21:55:36.559Z,0.2
2023-01-19T21:59:40.456Z,0.2
2023-01-19T22:01:42.534Z,0.2
2023-01-19T22:03:44.486Z,0.2
2023-01-19T22:05:49.444Z,0.2
2023-01-19T22:07:51.419Z,0.2
2023-01-19T22:09:53.365Z,0.2
2023-01-19T22:11:55.323Z,0.2
2023-01-19T22:13:57.267Z,0.2
2023-01-19T22:15:59.190Z,0.2
2023-01-19T22:18:01.139Z,0.2
2023-01-19T22:20:06.250Z,0.1
2023-01-19T22:22:08.216Z,0.2
2023-01-19T22:24:10.144Z,0.1
2023-01-19T22:26:12.109Z,0.1
2023-01-19T22:28:14.045Z,0.1
2023-01-19T22:34:23.021Z,0.1
2023-01-19T22:36:24.980Z,0.2
2023-01-19T22:39:29.429Z,0.1
2023-01-19T22:41:31.375Z,0.2
2023-01-19T22:43:33.306Z,0.2
2023-01-19T22:45:35.253Z,0.2
2023-01-19T22:47:40.349Z,0.2
2023-01-19T22:49:42.258Z,0.2
2023-01-19T22:51:44.219Z,0.2
2023-01-19T22:53:46.145Z,0.3
2023-01-19T22:55:48.091Z,0.3
2023-01-19T22:57:50.022Z,0.3
2023-01-19T22:59:51.982Z,0.3
2023-01-19T23:01:57.223Z,0.3
2023-01-19T23:03:59.007Z,0.3
2023-01-19T23:08:02.863Z,0.3
2023-01-19T23:10:04.807Z,0.3
2023-01-19T23:12:06.740Z,0.3
2023-01-19T23:14:08.680Z,0.3
2023-01-19T23:16:13.790Z,0.3
2023-01-19T23:18:15.725Z,0.3
2023-01-19T23:20:17.647Z,0.3
2023-01-19T23:22:19.632Z,0.3
2023-01-19T23:28:25.441Z,0.3
2023-01-19T23:30:30.563Z,0.3
2023-01-19T23:32:32.489Z,0.3
2023-01-19T23:34:34.415Z,0.2
2023-01-19T23:35:36.981Z,0.3
2023-01-19T23:37:38.930Z,0.3
2023-01-19T23:39:40.868Z,0.3
2023-01-19T23:41:42.832Z,0.3
2023-01-19T23:43:47.915Z,0.3
2023-01-19T23:45:49.861Z,0.3
2023-01-19T23:47:51.833Z,0.3
2023-01-19T23:49:53.737Z,0.3
2023-01-19T23:51:55.702Z,0.3
2023-01-19T23:53:57.626Z,0.3
2023-01-19T23:55:59.567Z,0.3
2023-01-19T23:58:04.683Z,0.3
